Time;durP1;ratioP1;P1;durP2;ratioP2;P2;SDS_P1;SDS_P2;PMS_P1;PMS_P2;Temp;Humidity;BMP_temperature;BMP_pressure;BME280_temperature;BME280_humidity;BME280_pressure;Samples;Min_cycle;Max_cycle;Signal;HPM_P1;HPM_P2
2022/06/16 00:00:10;;;;;;;7.90;7.30;;;19.20;99.90;;;;;;4924842;28;20453;-89
2022/06/16 00:02:46;;;;;;;8.20;7.50;;;19.00;99.90;;;;;;4927025;28;20499;-88
2022/06/16 00:05:13;;;;;;;8.90;8.00;;;18.90;99.90;;;;;;4920391;28;21313;-89
2022/06/16 00:07:40;;;;;;;10.40;8.47;;;18.80;99.90;;;;;;4925529;28;20454;-91
2022/06/16 00:10:07;;;;;;;8.87;7.80;;;18.70;99.90;;;;;;4944171;28;20494;-91
2022/06/16 00:12:33;;;;;;;7.97;7.27;;;18.70;99.90;;;;;;4923138;28;20509;-89
2022/06/16 00:14:59;;;;;;;8.10;7.40;;;18.60;99.90;;;;;;4923594;28;20455;-89
2022/06/16 00:17:25;;;;;;;7.77;7.07;;;18.50;99.90;;;;;;5007869;28;20445;-91
2022/06/16 00:19:50;;;;;;;8.90;8.07;;;18.40;99.90;;;;;;4928536;28;20191;-91
2022/06/16 00:22:16;;;;;;;7.80;7.20;;;18.40;99.90;;;;;;4924680;28;20449;-90
2022/06/16 00:24:41;;;;;;;9.30;8.40;;;18.20;99.90;;;;;;4940462;28;20196;-89
2022/06/16 00:27:07;;;;;;;8.57;7.87;;;18.10;99.90;;;;;;4924425;28;20436;-91
2022/06/16 00:29:34;;;;;;;8.80;8.10;;;18.10;99.90;;;;;;4926794;28;20242;-89
2022/06/16 00:32:00;;;;;;;8.40;7.80;;;18.10;99.90;;;;;;4944936;28;20187;-92
2022/06/16 00:34:26;;;;;;;8.77;8.07;;;18.00;99.90;;;;;;4933007;28;20457;-89
2022/06/16 00:36:52;;;;;;;8.93;8.23;;;18.00;99.90;;;;;;4929585;28;20439;-89
2022/06/16 00:39:18;;;;;;;8.53;7.93;;;18.00;99.90;;;;;;4924977;28;20450;-89
2022/06/16 00:41:43;;;;;;;8.37;7.67;;;18.00;99.90;;;;;;4924211;28;20186;-88
2022/06/16 00:44:32;;;;;;;8.23;7.63;;;18.00;99.90;;;;;;4934043;28;20180;-89
2022/06/16 00:46:58;;;;;;;8.97;8.27;;;17.90;99.90;;;;;;4924972;28;20192;-88
2022/06/16 00:49:25;;;;;;;8.70;7.90;;;17.90;99.90;;;;;;4920092;28;20619;-89
2022/06/16 00:51:56;;;;;;;8.20;7.40;;;17.90;99.90;;;;;;4931781;28;20194;-92
2022/06/16 00:54:36;;;;;;;8.50;7.80;;;17.90;99.90;;;;;;4937546;28;20449;-89
2022/06/16 00:57:07;;;;;;;7.83;7.23;;;17.90;99.90;;;;;;4917834;28;20752;-90
2022/06/16 00:59:35;;;;;;;7.93;7.33;;;17.90;99.90;;;;;;4925614;28;20465;-89
2022/06/16 01:02:03;;;;;;;8.23;7.60;;;17.90;99.90;;;;;;4927615;28;20529;-90
2022/06/16 01:07:14;;;;;;;9.17;8.37;;;17.80;99.90;;;;;;4917200;28;20851;-89
2022/06/16 01:09:43;;;;;;;8.70;7.97;;;17.70;99.90;;;;;;4926161;28;20509;-90
2022/06/16 01:15:17;;;;;;;11.43;8.10;;;17.70;99.90;;;;;;4932102;28;20652;-88
2022/06/16 01:18:08;;;;;;;8.40;7.70;;;17.60;99.90;;;;;;4944066;28;20482;-89
2022/06/16 01:20:43;;;;;;;8.30;7.70;;;17.60;99.90;;;;;;4940275;28;22156;-89
2022/06/16 01:23:18;;;;;;;8.10;7.60;;;17.60;99.90;;;;;;4938577;28;20430;-89
2022/06/16 01:26:10;;;;;;;8.03;7.43;;;17.70;99.90;;;;;;4945349;28;20994;-88
2022/06/16 01:28:58;;;;;;;8.27;7.57;;;17.70;99.90;;;;;;4946103;28;20488;-89
2022/06/16 01:31:31;;;;;;;8.27;7.57;;;17.70;99.90;;;;;;4942687;28;20443;-89
2022/06/16 01:34:04;;;;;;;8.00;7.30;;;17.60;99.90;;;;;;4926369;28;20495;-88
2022/06/16 01:36:47;;;;;;;8.60;7.90;;;17.60;99.90;;;;;;4930431;28;20469;-89
2022/06/16 01:39:22;;;;;;;8.30;7.60;;;17.60;99.90;;;;;;4923801;28;20495;-89
2022/06/16 01:41:58;;;;;;;8.60;7.90;;;17.60;99.90;;;;;;4944710;28;20803;-88
2022/06/16 01:44:41;;;;;;;7.80;7.20;;;17.50;99.90;;;;;;4931173;28;20799;-88
2022/06/16 01:47:12;;;;;;;7.97;7.37;;;17.50;99.90;;;;;;4925127;28;20439;-89
2022/06/16 01:49:44;;;;;;;8.80;7.93;;;17.50;99.90;;;;;;4924821;28;20504;-89
2022/06/16 01:52:41;;;;;;;8.17;7.57;;;17.40;99.90;;;;;;4921394;28;21398;-89
2022/06/16 01:55:13;;;;;;;8.33;7.63;;;17.40;99.90;;;;;;4947444;28;20459;-89
2022/06/16 01:57:47;;;;;;;8.37;7.77;;;17.40;99.90;;;;;;4924214;28;20535;-89
2022/06/16 02:00:18;;;;;;;7.83;7.10;;;17.40;99.90;;;;;;4942256;28;20808;-89
2022/06/16 02:02:46;;;;;;;7.30;6.80;;;17.40;99.90;;;;;;4937643;28;20515;-89
2022/06/16 02:05:26;;;;;;;8.17;7.57;;;17.50;99.90;;;;;;4941122;28;20553;-89
2022/06/16 02:08:14;;;;;;;8.13;7.53;;;17.50;99.90;;;;;;4925924;28;20584;-89
2022/06/16 02:10:47;;;;;;;7.47;6.97;;;17.40;99.90;;;;;;4921353;28;21883;-89
2022/06/16 02:13:17;;;;;;;8.23;7.50;;;17.40;99.90;;;;;;4923147;28;20443;-89
2022/06/16 02:15:48;;;;;;;7.90;7.23;;;17.40;99.90;;;;;;4938046;28;21270;-89
2022/06/16 02:18:18;;;;;;;8.00;7.37;;;17.30;99.90;;;;;;4924223;28;20496;-89
2022/06/16 02:20:52;;;;;;;7.90;7.30;;;17.40;99.90;;;;;;4924570;28;20519;-90
2022/06/16 02:23:18;;;;;;;8.20;7.70;;;17.30;99.90;;;;;;4924637;28;20756;-90
2022/06/16 02:25:45;;;;;;;8.50;7.80;;;17.30;99.90;;;;;;4924620;28;20558;-91
2022/06/16 02:28:12;;;;;;;8.50;7.90;;;17.30;99.90;;;;;;4926403;28;20450;-92
2022/06/16 02:30:58;;;;;;;8.27;7.60;;;17.30;99.90;;;;;;4925440;28;20478;-91
2022/06/16 02:33:46;;;;;;;9.70;8.43;;;17.20;99.90;;;;;;4944874;28;20445;-88
2022/06/16 02:36:22;;;;;;;8.40;7.43;;;17.10;99.90;;;;;;4927350;28;20492;-91
2022/06/16 02:39:14;;;;;;;8.13;7.53;;;17.10;99.90;;;;;;4938154;28;20451;-90
2022/06/16 02:41:58;;;;;;;8.50;7.80;;;17.00;99.90;;;;;;4942829;28;20556;-90
2022/06/16 02:44:31;;;;;;;9.37;8.33;;;16.90;99.90;;;;;;4944199;28;20585;-88
2022/06/16 02:50:04;;;;;;;9.80;9.00;;;16.90;99.90;;;;;;5026080;27;20399;-89
2022/06/16 02:52:40;;;;;;;8.80;8.03;;;16.70;99.90;;;;;;4998681;28;20827;-88
2022/06/16 02:55:19;;;;;;;8.47;7.60;;;16.70;99.90;;;;;;5005175;28;20451;-89
2022/06/16 02:57:55;;;;;;;8.77;8.10;;;16.60;99.90;;;;;;4975829;28;20487;-89
2022/06/16 03:00:27;;;;;;;8.17;7.57;;;16.60;99.90;;;;;;5015627;28;21519;-89
2022/06/16 03:02:52;;;;;;;9.07;8.27;;;16.60;99.90;;;;;;5000565;28;20444;-91
2022/06/16 03:05:19;;;;;;;9.83;9.03;;;16.60;99.90;;;;;;5012056;28;20459;-89
2022/06/16 03:07:45;;;;;;;8.63;7.93;;;16.60;99.90;;;;;;4999329;28;20235;-91
2022/06/16 03:10:14;;;;;;;8.47;7.83;;;16.60;99.90;;;;;;4991264;28;20510;-89
2022/06/16 03:12:40;;;;;;;8.97;8.20;;;16.50;99.90;;;;;;5002919;28;20558;-90
2022/06/16 03:15:06;;;;;;;9.03;8.23;;;16.40;99.90;;;;;;5000627;28;21739;-91
2022/06/16 03:17:31;;;;;;;9.47;8.67;;;16.40;99.90;;;;;;5000329;28;20674;-89
2022/06/16 03:19:58;;;;;;;8.70;8.00;;;16.30;99.90;;;;;;5005856;28;20440;-92
2022/06/16 03:22:24;;;;;;;8.93;8.13;;;16.30;99.90;;;;;;4999172;28;20189;-91
2022/06/16 03:24:50;;;;;;;8.40;7.60;;;16.20;99.90;;;;;;5004189;28;21792;-87
2022/06/16 03:27:16;;;;;;;8.03;7.30;;;16.20;99.90;;;;;;5005716;28;20618;-89
2022/06/16 03:29:42;;;;;;;7.80;7.20;;;16.30;99.90;;;;;;5021613;27;20456;-89
2022/06/16 03:32:07;;;;;;;8.53;7.83;;;16.30;99.90;;;;;;5006574;28;20242;-89
2022/06/16 03:34:33;;;;;;;9.40;7.77;;;16.30;99.90;;;;;;4984695;28;20276;-89
2022/06/16 03:36:59;;;;;;;8.60;7.90;;;16.40;99.90;;;;;;5007492;28;20185;-89
2022/06/16 03:39:24;;;;;;;8.63;7.93;;;16.40;99.90;;;;;;5000155;28;20181;-89
2022/06/16 03:41:50;;;;;;;8.30;7.60;;;16.40;99.90;;;;;;5016322;28;20212;-89
2022/06/16 03:44:16;;;;;;;8.57;7.67;;;16.40;99.90;;;;;;5001980;28;20580;-89
2022/06/16 03:46:41;;;;;;;8.63;8.00;;;16.50;99.90;;;;;;5000855;28;20190;-89
2022/06/16 03:49:07;;;;;;;8.70;7.90;;;16.50;99.90;;;;;;4989802;28;20225;-89
2022/06/16 03:51:33;;;;;;;9.10;8.37;;;16.50;99.90;;;;;;4987135;28;20194;-89
2022/06/16 03:53:59;;;;;;;8.60;8.00;;;16.60;99.90;;;;;;4988078;28;20464;-89
2022/06/16 03:56:24;;;;;;;10.83;7.90;;;16.70;99.90;;;;;;5008944;28;20197;-88
2022/06/16 03:58:52;;;;;;;7.57;7.07;;;16.70;99.90;;;;;;5003471;28;20267;-89
2022/06/16 04:01:28;;;;;;;7.97;7.27;;;16.70;99.90;;;;;;4982272;28;20212;-88
2022/06/16 04:03:59;;;;;;;8.07;7.37;;;16.70;99.90;;;;;;4989394;28;20448;-89
2022/06/16 04:06:25;;;;;;;8.50;7.80;;;16.70;99.90;;;;;;4982716;28;20476;-89
2022/06/16 04:08:50;;;;;;;8.37;7.63;;;16.70;99.90;;;;;;4985411;28;20477;-89
2022/06/16 04:11:28;;;;;;;9.33;7.70;;;16.70;99.90;;;;;;4987625;28;20308;-88
2022/06/16 04:14:10;;;;;;;8.17;7.37;;;16.70;99.90;;;;;;4980903;28;20960;-88
2022/06/16 04:16:40;;;;;;;9.57;8.70;;;16.60;99.90;;;;;;4982734;28;21476;-88
2022/06/16 04:19:06;;;;;;;8.47;7.77;;;16.60;99.90;;;;;;4977198;28;20445;-90
2022/06/16 04:21:35;;;;;;;7.60;7.00;;;16.50;99.90;;;;;;4982341;28;20591;-89
2022/06/16 04:24:01;;;;;;;7.63;7.13;;;16.40;99.90;;;;;;4986752;28;21084;-89
2022/06/16 04:26:26;;;;;;;8.17;7.57;;;16.40;99.90;;;;;;4992152;28;20523;-88
2022/06/16 04:28:52;;;;;;;8.30;7.60;;;16.40;99.90;;;;;;4978476;28;20218;-88
2022/06/16 04:31:18;;;;;;;8.73;7.97;;;16.40;99.90;;;;;;4980998;28;20650;-89
2022/06/16 04:33:43;;;;;;;10.47;7.90;;;16.40;99.90;;;;;;4987818;28;20193;-88
2022/06/16 04:36:09;;;;;;;8.67;7.87;;;16.40;99.90;;;;;;4991648;28;20190;-90
2022/06/16 04:38:36;;;;;;;8.40;7.70;;;16.50;99.90;;;;;;4990084;28;20197;-91
2022/06/16 04:41:15;;;;;;;7.90;7.20;;;16.50;99.90;;;;;;4980884;28;20814;-89
2022/06/16 04:43:41;;;;;;;7.87;7.20;;;16.50;99.90;;;;;;4983719;28;20448;-89
2022/06/16 04:46:08;;;;;;;8.70;7.87;;;16.60;99.90;;;;;;4983006;28;21014;-89
2022/06/16 04:48:35;;;;;;;7.43;6.83;;;16.70;99.90;;;;;;4974085;28;20346;-90
2022/06/16 04:51:15;;;;;;;8.00;7.40;;;16.70;99.90;;;;;;4983341;28;20440;-90
2022/06/16 04:53:41;;;;;;;8.30;7.60;;;16.70;99.90;;;;;;4982853;28;20474;-89
2022/06/16 04:56:07;;;;;;;8.70;7.97;;;16.70;99.90;;;;;;4996322;28;20439;-89
2022/06/16 04:58:33;;;;;;;8.67;7.97;;;16.80;99.90;;;;;;4977004;28;20194;-91
2022/06/16 05:00:59;;;;;;;9.00;8.27;;;16.90;99.90;;;;;;4996619;28;20449;-90
2022/06/16 05:03:27;;;;;;;8.67;7.97;;;17.10;99.90;;;;;;4980528;28;21554;-89
2022/06/16 05:05:55;;;;;;;7.57;7.00;;;17.20;99.90;;;;;;4992912;28;20872;-90
2022/06/16 05:08:20;;;;;;;8.10;7.50;;;17.30;99.90;;;;;;4991274;28;21055;-89
2022/06/16 05:10:47;;;;;;;7.10;6.60;;;17.40;99.90;;;;;;4986125;28;20441;-89
2022/06/16 05:13:14;;;;;;;8.87;7.97;;;17.60;99.90;;;;;;4973434;28;20185;-90
2022/06/16 05:15:39;;;;;;;7.67;7.07;;;17.80;99.90;;;;;;4975815;28;21007;-86
2022/06/16 05:18:06;;;;;;;8.13;7.47;;;17.90;99.90;;;;;;4978389;28;20441;-87
2022/06/16 05:20:32;;;;;;;8.40;7.70;;;18.00;99.90;;;;;;4977242;28;20180;-91
2022/06/16 05:22:58;;;;;;;8.00;7.30;;;18.00;99.90;;;;;;4995219;28;20814;-89
2022/06/16 05:25:24;;;;;;;7.83;7.20;;;18.00;99.90;;;;;;4998425;28;20182;-89
2022/06/16 05:27:49;;;;;;;7.80;7.20;;;18.00;99.90;;;;;;4979110;28;20650;-90
2022/06/16 05:30:15;;;;;;;7.80;7.20;;;18.00;99.90;;;;;;4980911;28;20207;-92
2022/06/16 05:32:42;;;;;;;7.43;6.83;;;17.90;99.90;;;;;;4961704;28;20217;-91
2022/06/16 05:35:08;;;;;;;7.10;6.60;;;17.70;99.90;;;;;;4980257;28;20178;-90
2022/06/16 05:37:34;;;;;;;7.20;6.60;;;17.70;99.90;;;;;;4991173;28;20916;-90
2022/06/16 05:39:59;;;;;;;7.70;7.00;;;17.90;99.90;;;;;;4989084;28;20748;-89
2022/06/16 05:42:25;;;;;;;7.27;6.77;;;18.00;99.90;;;;;;4984292;28;20541;-90
2022/06/16 05:44:53;;;;;;;7.50;6.40;;;18.20;99.90;;;;;;4982643;28;20967;-91
2022/06/16 05:47:19;;;;;;;7.33;6.73;;;18.30;99.90;;;;;;4969075;28;20181;-91
2022/06/16 05:49:44;;;;;;;7.40;6.80;;;18.30;99.90;;;;;;4979178;28;20582;-91
2022/06/16 05:52:18;;;;;;;8.20;7.50;;;18.40;99.90;;;;;;4965794;28;20181;-92
2022/06/16 05:54:44;;;;;;;7.80;7.17;;;18.50;99.90;;;;;;4958407;28;20189;-90
2022/06/16 05:57:10;;;;;;;8.23;7.10;;;18.50;99.90;;;;;;4978970;28;20906;-90
2022/06/16 05:59:37;;;;;;;8.63;7.70;;;18.30;99.90;;;;;;4975353;28;20558;-90
2022/06/16 06:02:05;;;;;;;7.70;7.10;;;18.50;99.90;;;;;;4956040;28;20190;-86
2022/06/16 06:04:31;;;;;;;7.90;7.20;;;18.60;99.90;;;;;;4985092;28;20452;-87
2022/06/16 06:06:57;;;;;;;8.50;7.73;;;18.70;99.90;;;;;;4959771;28;20532;-86
2022/06/16 06:17:42;;;;;;;7.57;6.97;;;19.20;99.90;;;;;;4974175;28;20539;-90
2022/06/16 06:20:08;;;;;;;8.47;7.73;;;19.50;99.90;;;;;;4992094;28;20510;-88
2022/06/16 06:22:34;;;;;;;7.47;6.77;;;19.60;99.90;;;;;;4960048;28;20215;-89
2022/06/16 06:25:00;;;;;;;8.13;7.43;;;19.40;99.90;;;;;;5000760;27;22066;-88
2022/06/16 06:27:44;;;;;;;9.13;8.10;;;19.50;99.90;;;;;;4971580;28;20278;-89
2022/06/16 06:30:17;;;;;;;7.43;6.70;;;19.70;99.90;;;;;;4979803;28;20663;-89
2022/06/16 06:32:56;;;;;;;8.30;7.70;;;19.80;99.90;;;;;;4991923;28;22877;-89
2022/06/16 06:35:22;;;;;;;7.40;6.80;;;19.80;99.90;;;;;;4979974;28;20475;-89
2022/06/16 06:37:49;;;;;;;7.77;7.17;;;19.90;99.90;;;;;;4985576;28;20476;-89
2022/06/16 06:40:29;;;;;;;8.60;6.97;;;20.00;99.90;;;;;;4995239;28;20513;-87
2022/06/16 06:42:54;;;;;;;8.10;7.50;;;20.00;99.90;;;;;;4995005;28;20459;-88
2022/06/16 06:45:20;;;;;;;8.10;7.40;;;19.90;99.90;;;;;;4957776;28;20441;-90
2022/06/16 06:47:47;;;;;;;8.10;7.50;;;19.90;99.90;;;;;;4978706;28;20577;-92
2022/06/16 06:50:25;;;;;;;8.60;7.80;;;20.00;99.90;;;;;;5003618;28;20498;-96
2022/06/16 06:52:51;;;;;;;7.90;7.17;;;20.20;99.90;;;;;;4975137;28;20448;-90
2022/06/16 06:55:18;;;;;;;7.53;6.73;;;20.30;99.90;;;;;;4971036;28;20568;-93
2022/06/16 06:57:44;;;;;;;7.60;7.10;;;20.50;99.90;;;;;;4974468;28;20455;-90
2022/06/16 07:00:13;;;;;;;7.60;6.90;;;20.70;99.90;;;;;;4982385;28;20465;-92
2022/06/16 07:02:39;;;;;;;7.47;6.97;;;20.80;99.90;;;;;;4972870;28;20788;-90
2022/06/16 07:05:05;;;;;;;6.60;6.10;;;21.00;99.90;;;;;;4960091;28;20534;-91
2022/06/16 07:07:33;;;;;;;7.20;6.57;;;21.40;99.90;;;;;;4951643;28;20193;-91
2022/06/16 07:09:59;;;;;;;27.67;25.07;;;21.70;99.50;;;;;;4967458;28;20954;-91
2022/06/16 07:12:25;;;;;;;11.47;10.60;;;21.90;99.10;;;;;;4973362;28;21639;-92
2022/06/16 07:14:51;;;;;;;7.03;6.43;;;22.20;98.00;;;;;;4963702;28;20186;-96
2022/06/16 07:17:20;;;;;;;7.57;6.97;;;22.10;96.10;;;;;;4994633;28;20501;-93
2022/06/16 07:19:46;;;;;;;6.20;5.80;;;21.80;96.50;;;;;;4985142;28;20448;-96
2022/06/16 07:22:15;;;;;;;7.27;6.73;;;21.80;98.10;;;;;;4986600;28;20486;-94
2022/06/16 07:24:40;;;;;;;7.03;6.50;;;21.80;99.30;;;;;;4984207;28;20449;-94
2022/06/16 07:27:09;;;;;;;7.13;6.30;;;21.90;98.70;;;;;;4993498;28;20441;-94
2022/06/16 07:29:35;;;;;;;7.73;7.00;;;21.90;98.20;;;;;;5000038;28;20656;-94
2022/06/16 07:32:01;;;;;;;7.50;7.00;;;22.00;98.20;;;;;;5003968;28;20455;-94
2022/06/16 07:34:27;;;;;;;6.93;6.43;;;21.80;98.30;;;;;;4996021;28;21044;-95
2022/06/16 07:36:53;;;;;;;6.87;6.33;;;21.70;98.50;;;;;;4988482;28;20589;-94
2022/06/16 07:39:19;;;;;;;7.50;6.90;;;21.80;98.60;;;;;;4993866;28;21031;-93
2022/06/16 07:41:44;;;;;;;7.20;6.60;;;22.00;97.90;;;;;;5001632;28;20707;-93
2022/06/16 07:44:13;;;;;;;6.80;6.37;;;22.20;97.80;;;;;;4990089;28;20223;-93
2022/06/16 07:46:42;;;;;;;7.27;6.67;;;22.40;97.80;;;;;;4999273;28;20198;-93
2022/06/16 07:49:11;;;;;;;7.43;6.83;;;22.50;96.70;;;;;;5011240;27;20534;-93
2022/06/16 07:51:37;;;;;;;8.10;7.27;;;22.60;96.50;;;;;;4989135;28;20452;-94
2022/06/16 07:54:03;;;;;;;6.60;6.10;;;22.80;96.50;;;;;;5005503;28;20451;-93
2022/06/16 07:56:28;;;;;;;6.60;6.00;;;23.00;95.40;;;;;;4996191;28;20437;-94
2022/06/16 07:58:54;;;;;;;7.70;7.10;;;23.00;92.70;;;;;;4987391;28;20197;-94
2022/06/16 08:01:20;;;;;;;5.90;5.50;;;23.10;92.40;;;;;;4996702;28;20216;-93
2022/06/16 08:03:46;;;;;;;7.23;6.50;;;23.30;92.10;;;;;;5006456;27;20174;-94
2022/06/16 08:06:16;;;;;;;7.17;6.67;;;23.40;92.10;;;;;;4992098;28;20193;-95
2022/06/16 08:08:43;;;;;;;7.43;6.10;;;23.40;92.10;;;;;;4977494;28;20460;-93
2022/06/16 08:13:55;;;;;;;5.97;5.67;;;23.40;90.80;;;;;;4977083;28;20838;-94
2022/06/16 08:16:21;;;;;;;6.80;6.20;;;23.60;92.30;;;;;;4997370;28;20444;-94
2022/06/16 08:18:47;;;;;;;6.33;5.93;;;23.70;92.10;;;;;;4988796;28;20452;-92
2022/06/16 08:21:13;;;;;;;7.67;6.10;;;24.00;92.50;;;;;;4989527;28;20449;-95
2022/06/16 08:23:38;;;;;;;7.20;6.60;;;24.20;90.30;;;;;;4990000;28;20193;-95
2022/06/16 08:26:04;;;;;;;6.80;6.30;;;24.40;90.20;;;;;;4995177;28;20197;-95
2022/06/16 08:28:32;;;;;;;6.87;6.47;;;24.40;90.80;;;;;;5009136;27;20263;-94
2022/06/16 08:31:01;;;;;;;6.00;5.50;;;24.10;92.50;;;;;;4985094;28;20352;-93
2022/06/16 08:33:30;;;;;;;8.30;6.83;;;23.90;92.10;;;;;;4980743;28;20583;-94
2022/06/16 08:36:03;;;;;;;6.67;6.17;;;23.80;94.00;;;;;;4979118;28;20441;-94
2022/06/16 08:38:29;;;;;;;7.07;6.50;;;23.80;95.30;;;;;;5004083;27;20857;-93
2022/06/16 08:41:13;;;;;;;6.73;6.13;;;24.00;94.80;;;;;;4995082;28;20652;-93
2022/06/16 08:43:47;;;;;;;8.07;7.37;;;24.30;95.30;;;;;;4995274;28;20209;-94
2022/06/16 08:46:16;;;;;;;7.83;7.13;;;24.40;94.90;;;;;;5000891;28;20448;-94
2022/06/16 08:49:00;;;;;;;8.07;7.40;;;24.60;96.00;;;;;;4996254;28;20488;-95
2022/06/16 08:51:40;;;;;;;7.40;6.70;;;24.90;94.10;;;;;;4995598;28;20453;-94
2022/06/16 08:54:09;;;;;;;7.60;6.90;;;25.20;94.10;;;;;;5007381;28;20792;-95
2022/06/16 08:57:09;;;;;;;7.73;7.17;;;25.30;94.40;;;;;;4994001;28;20453;-94
2022/06/16 09:00:00;;;;;;;7.60;7.00;;;25.60;93.60;;;;;;4985743;28;20840;-93
2022/06/16 09:02:53;;;;;;;7.80;7.20;;;25.50;92.50;;;;;;4990936;28;20502;-95
2022/06/16 09:05:47;;;;;;;7.07;6.47;;;25.50;93.30;;;;;;5001565;27;21322;-95
2022/06/16 09:08:37;;;;;;;7.17;6.60;;;25.70;93.30;;;;;;5005865;27;20571;-95
2022/06/16 09:11:32;;;;;;;7.90;7.20;;;25.80;93.30;;;;;;5009090;27;20448;-93
2022/06/16 09:17:44;;;;;;;7.47;6.97;;;25.90;92.60;;;;;;4974870;28;20471;-94
2022/06/16 09:20:19;;;;;;;8.27;7.67;;;26.10;91.20;;;;;;5005765;27;20441;-93
2022/06/16 09:22:57;;;;;;;8.13;7.50;;;26.40;92.10;;;;;;4971526;28;20442;-95
2022/06/16 09:25:54;;;;;;;7.70;6.90;;;26.70;92.70;;;;;;4999849;28;20445;-93
2022/06/16 09:29:04;;;;;;;7.20;6.57;;;26.30;86.30;;;;;;4973830;28;20464;-94
2022/06/16 09:31:47;;;;;;;6.73;6.10;;;25.90;84.80;;;;;;4988665;28;20455;-92
2022/06/16 09:34:33;;;;;;;6.00;5.60;;;25.70;85.00;;;;;;4994541;28;20429;-91
2022/06/16 09:37:05;;;;;;;7.10;6.60;;;25.80;83.00;;;;;;4986370;28;20497;-93
2022/06/16 09:39:38;;;;;;;6.30;5.90;;;25.70;82.70;;;;;;5053290;28;20441;-93
2022/06/16 09:42:37;;;;;;;7.00;5.80;;;25.60;83.50;;;;;;4974747;28;20547;-93
2022/06/16 09:45:20;;;;;;;5.77;5.10;;;25.40;81.10;;;;;;4987738;28;20538;-93
2022/06/16 09:47:51;;;;;;;10.43;6.17;;;25.30;80.80;;;;;;4996458;28;20514;-92
2022/06/16 09:50:33;;;;;;;6.93;6.23;;;25.30;82.10;;;;;;4970810;28;20452;-93
2022/06/16 09:53:20;;;;;;;5.83;5.20;;;25.60;81.70;;;;;;4988191;28;20441;-93
2022/06/16 09:55:49;;;;;;;6.37;5.87;;;25.80;79.60;;;;;;5054895;28;20449;-93
2022/06/16 09:58:33;;;;;;;5.80;5.40;;;25.80;79.50;;;;;;4967784;28;20965;-92
2022/06/16 10:01:28;;;;;;;5.97;5.57;;;26.00;80.40;;;;;;4986346;28;20452;-94
2022/06/16 10:04:03;;;;;;;6.57;5.40;;;26.60;81.10;;;;;;4984506;28;20440;-93
2022/06/16 10:06:43;;;;;;;5.30;4.90;;;26.70;76.10;;;;;;4990661;28;20448;-91
2022/06/16 10:09:22;;;;;;;5.40;5.00;;;26.60;77.60;;;;;;4991637;28;20484;-93
2022/06/16 10:12:10;;;;;;;5.50;5.00;;;26.50;73.70;;;;;;4990314;28;20957;-93
2022/06/16 10:14:49;;;;;;;4.90;4.50;;;26.50;74.60;;;;;;4985947;28;20598;-93
2022/06/16 10:17:17;;;;;;;4.50;4.20;;;26.60;73.20;;;;;;5062063;28;20457;-92
2022/06/16 10:19:44;;;;;;;6.23;5.70;;;26.70;75.40;;;;;;4990327;28;20494;-93
2022/06/16 10:22:15;;;;;;;5.97;5.47;;;27.00;76.10;;;;;;4970775;28;20429;-93
2022/06/16 10:24:44;;;;;;;4.80;4.40;;;27.00;74.60;;;;;;5006602;27;20465;-93
2022/06/16 10:27:13;;;;;;;5.60;5.00;;;27.00;76.90;;;;;;4967466;28;20469;-92
2022/06/16 10:29:49;;;;;;;6.00;5.60;;;27.00;76.90;;;;;;4983086;28;21097;-92
2022/06/16 10:32:17;;;;;;;5.60;5.20;;;27.30;73.40;;;;;;4992650;28;20436;-91
2022/06/16 10:34:42;;;;;;;6.00;5.40;;;27.10;73.80;;;;;;4990089;28;20445;-93
2022/06/16 10:37:18;;;;;;;5.97;5.60;;;27.20;71.40;;;;;;4969719;28;20515;-93
2022/06/16 10:39:55;;;;;;;5.77;5.20;;;27.30;76.10;;;;;;4989888;28;20403;-94
2022/06/16 10:42:32;;;;;;;7.20;5.97;;;27.00;72.50;;;;;;4990116;28;20505;-93
2022/06/16 10:45:05;;;;;;;6.43;5.83;;;27.10;76.50;;;;;;4967837;28;20577;-94
2022/06/16 10:47:39;;;;;;;5.70;5.30;;;27.40;77.30;;;;;;4990819;28;20469;-93
2022/06/16 10:50:18;;;;;;;6.70;6.07;;;27.30;73.50;;;;;;4984035;28;21364;-93
2022/06/16 10:52:58;;;;;;;6.30;5.70;;;27.30;76.10;;;;;;4993002;28;20486;-93
2022/06/16 10:55:29;;;;;;;5.73;5.27;;;27.50;79.80;;;;;;4982646;28;20974;-92
2022/06/16 10:58:01;;;;;;;6.03;5.53;;;27.80;74.70;;;;;;4985215;28;20444;-93
2022/06/16 11:00:30;;;;;;;5.93;5.53;;;27.90;75.70;;;;;;4990472;28;22356;-92
2022/06/16 11:03:39;;;;;;;6.00;5.50;;;28.00;76.20;;;;;;4990786;28;20605;-93
2022/06/16 11:06:07;;;;;;;6.20;5.77;;;27.80;73.30;;;;;;4990130;28;20484;-92
2022/06/16 11:08:39;;;;;;;6.13;5.67;;;28.00;77.70;;;;;;4969248;28;20476;-91
2022/06/16 11:11:05;;;;;;;6.30;5.77;;;28.60;77.80;;;;;;4995008;28;21258;-92
2022/06/16 11:13:37;;;;;;;6.60;6.10;;;28.90;74.10;;;;;;4990844;28;20429;-91
2022/06/16 11:16:10;;;;;;;6.90;4.87;;;29.10;77.60;;;;;;4991693;28;20490;-93
2022/06/16 11:18:38;;;;;;;5.63;5.23;;;29.20;73.80;;;;;;4994147;28;20444;-91
2022/06/16 11:21:19;;;;;;;5.23;4.83;;;29.20;73.50;;;;;;4970605;28;20467;-94
2022/06/16 11:23:51;;;;;;;6.97;5.40;;;28.90;69.50;;;;;;4988743;28;21075;-92
2022/06/16 11:26:16;;;;;;;5.80;5.30;;;28.70;70.80;;;;;;5005855;27;20602;-92
2022/06/16 11:28:42;;;;;;;5.97;5.47;;;28.50;72.70;;;;;;4992780;28;20524;-93
2022/06/16 11:31:08;;;;;;;7.50;5.83;;;28.80;72.00;;;;;;5018236;28;20185;-93
2022/06/16 11:36:37;;;;;;;5.50;5.10;;;28.40;70.20;;;;;;4981159;28;20220;-92
2022/06/16 11:39:37;;;;;;;6.00;5.50;;;28.60;72.00;;;;;;4990515;28;20444;-93
2022/06/16 11:42:03;;;;;;;6.60;6.10;;;28.90;72.20;;;;;;4972365;28;20494;-92
2022/06/16 11:44:44;;;;;;;6.30;5.67;;;28.80;71.10;;;;;;4989292;28;20440;-92
2022/06/16 11:47:22;;;;;;;6.00;5.57;;;28.50;71.70;;;;;;4992400;28;20448;-92
2022/06/16 11:50:24;;;;;;;6.43;5.93;;;28.50;71.70;;;;;;5000066;28;20547;-93
2022/06/16 11:53:13;;;;;;;5.63;5.20;;;28.50;71.90;;;;;;5002008;28;21034;-93
2022/06/16 11:56:00;;;;;;;6.13;5.53;;;28.70;71.60;;;;;;5054165;28;20452;-94
2022/06/16 11:59:10;;;;;;;7.23;5.80;;;28.80;70.30;;;;;;5050382;28;20455;-94
2022/06/16 12:01:48;;;;;;;5.83;5.43;;;28.60;69.60;;;;;;4992022;28;20851;-93
2022/06/16 12:04:44;;;;;;;6.90;6.23;;;28.20;68.60;;;;;;4973213;28;20472;-94
2022/06/16 12:07:18;;;;;;;6.97;6.37;;;28.40;70.90;;;;;;4992765;28;20441;-93
2022/06/16 12:10:04;;;;;;;8.43;7.50;;;28.60;73.20;;;;;;4991549;28;20480;-91
2022/06/16 12:12:45;;;;;;;6.17;5.57;;;28.90;72.80;;;;;;5001066;28;20498;-92
2022/06/16 12:15:14;;;;;;;6.30;5.87;;;29.30;72.10;;;;;;4973202;28;20479;-95
2022/06/16 12:18:16;;;;;;;6.07;5.57;;;29.10;69.20;;;;;;4989889;28;20754;-93
2022/06/16 12:20:53;;;;;;;5.90;5.47;;;28.90;70.70;;;;;;4994821;28;20473;-95
2022/06/16 12:23:41;;;;;;;6.67;6.07;;;28.70;68.10;;;;;;5000678;28;20445;-92
2022/06/16 12:26:28;;;;;;;5.83;5.30;;;28.60;68.30;;;;;;5002398;28;20973;-94
2022/06/16 12:29:07;;;;;;;5.80;5.40;;;28.60;71.70;;;;;;4985249;28;21069;-95
2022/06/16 12:31:45;;;;;;;6.13;5.70;;;28.70;66.50;;;;;;4975762;28;20448;-93
2022/06/16 12:34:32;;;;;;;4.77;4.47;;;28.70;71.20;;;;;;4996745;28;20823;-95
2022/06/16 12:37:11;;;;;;;5.63;5.17;;;29.10;72.90;;;;;;4990727;28;20453;-93
2022/06/16 12:39:49;;;;;;;5.73;5.33;;;29.30;65.40;;;;;;4997005;28;20453;-93
2022/06/16 12:42:24;;;;;;;6.10;4.80;;;28.90;63.40;;;;;;4981140;28;20539;-93
2022/06/16 12:44:54;;;;;;;6.00;5.27;;;28.90;66.80;;;;;;4988560;28;20626;-93
2022/06/16 12:47:28;;;;;;;7.97;5.20;;;29.30;65.60;;;;;;5007238;27;21819;-94
2022/06/16 12:50:21;;;;;;;7.77;5.20;;;28.80;61.90;;;;;;4985147;28;21012;-93
2022/06/16 12:52:52;;;;;;;5.60;5.20;;;28.70;65.10;;;;;;4989840;28;20472;-92
2022/06/16 12:55:43;;;;;;;5.37;4.87;;;29.30;67.20;;;;;;5059564;28;20445;-93
2022/06/16 12:58:12;;;;;;;5.10;4.50;;;30.10;64.30;;;;;;4986532;28;20686;-95
2022/06/16 13:00:43;;;;;;;5.20;4.70;;;30.00;63.30;;;;;;4993283;28;20541;-94
2022/06/16 13:03:27;;;;;;;5.50;4.97;;;29.70;61.00;;;;;;5011175;27;20445;-93
2022/06/16 13:05:57;;;;;;;4.80;4.40;;;29.60;60.60;;;;;;4999741;28;20486;-93
2022/06/16 13:08:25;;;;;;;4.53;4.23;;;29.60;58.00;;;;;;4981274;28;21126;-93
2022/06/16 13:10:57;;;;;;;4.67;4.27;;;29.40;58.10;;;;;;4990707;28;20494;-92
2022/06/16 13:13:29;;;;;;;4.83;4.40;;;29.20;56.10;;;;;;4984241;28;20428;-95
2022/06/16 13:15:58;;;;;;;4.73;4.13;;;29.40;57.70;;;;;;4995462;28;20456;-93
2022/06/16 13:18:28;;;;;;;5.30;4.63;;;29.10;54.20;;;;;;4993354;28;20441;-93
2022/06/16 13:21:05;;;;;;;4.33;4.03;;;29.10;59.30;;;;;;4998420;28;20425;-93
2022/06/16 13:23:35;;;;;;;5.17;4.67;;;29.50;58.00;;;;;;4989499;28;20456;-92
2022/06/16 13:26:21;;;;;;;4.93;4.53;;;29.80;56.30;;;;;;4986751;28;20499;-94
2022/06/16 13:29:07;;;;;;;6.33;4.50;;;29.90;57.40;;;;;;4991854;28;20457;-92
2022/06/16 13:31:55;;;;;;;5.33;4.73;;;30.10;56.40;;;;;;4989255;28;20462;-92
2022/06/16 13:34:53;;;;;;;4.60;4.07;;;30.10;55.50;;;;;;4993173;28;20452;-95
2022/06/16 13:37:33;;;;;;;4.07;3.80;;;30.00;54.90;;;;;;4983499;28;20453;-94
2022/06/16 13:40:05;;;;;;;4.40;4.10;;;30.00;54.50;;;;;;4967955;28;21030;-93